sensor_id;sensor_type;location;lat;lon;timestamp;pressure;altitude;pressure_sealevel;temperature;humidity
59789;BME280;47353;51.614;5.530;2022-09-09T00:04:27;100680.97;;;13.43;100.00
59789;BME280;47353;51.614;5.530;2022-09-09T00:07:00;100688.41;;;13.48;100.00
59789;BME280;47353;51.614;5.530;2022-09-09T00:09:31;100682.06;;;13.42;100.00
59789;BME280;47353;51.614;5.530;2022-09-09T00:12:04;100686.50;;;13.43;100.00
59789;BME280;47353;51.614;5.530;2022-09-09T00:17:14;100685.63;;;13.48;100.00
59789;BME280;47353;51.614;5.530;2022-09-09T00:19:51;100679.59;;;13.40;100.00
59789;BME280;47353;51.614;5.530;2022-09-09T00:22:26;100678.78;;;13.40;100.00
59789;BME280;47353;51.614;5.530;2022-09-09T00:24:54;100673.28;;;13.35;100.00
59789;BME280;47353;51.614;5.530;2022-09-09T00:27:48;100672.75;;;13.33;100.00
59789;BME280;47353;51.614;5.530;2022-09-09T00:30:18;100673.28;;;13.35;100.00
59789;BME280;47353;51.614;5.530;2022-09-09T00:32:55;100674.47;;;13.29;100.00
59789;BME280;47353;51.614;5.530;2022-09-09T00:35:32;100671.09;;;13.32;100.00
59789;BME280;47353;51.614;5.530;2022-09-09T00:38:35;100676.72;;;13.27;100.00
59789;BME280;47353;51.614;5.530;2022-09-09T00:43:36;100672.28;;;13.26;100.00
59789;BME280;47353;51.614;5.530;2022-09-09T00:54:58;100662.13;;;13.16;100.00
59789;BME280;47353;51.614;5.530;2022-09-09T00:59:48;100633.41;;;13.02;100.00
59789;BME280;47353;51.614;5.530;2022-09-09T01:02:27;100635.53;;;13.10;100.00
59789;BME280;47353;51.614;5.530;2022-09-09T01:04:53;100642.75;;;13.11;100.00
59789;BME280;47353;51.614;5.530;2022-09-09T01:07:20;100637.50;;;13.10;100.00
59789;BME280;47353;51.614;5.530;2022-09-09T01:09:55;100638.63;;;13.09;100.00
59789;BME280;47353;51.614;5.530;2022-09-09T01:12:42;100646.34;;;13.12;100.00
59789;BME280;47353;51.614;5.530;2022-09-09T01:15:15;100640.88;;;13.07;100.00
59789;BME280;47353;51.614;5.530;2022-09-09T01:23:02;100648.97;;;13.03;100.00
59789;BME280;47353;51.614;5.530;2022-09-09T01:26:03;100645.97;;;13.00;100.00
59789;BME280;47353;51.614;5.530;2022-09-09T01:28:34;100651.75;;;13.03;100.00
59789;BME280;47353;51.614;5.530;2022-09-09T01:31:03;100653.13;;;13.06;100.00
59789;BME280;47353;51.614;5.530;2022-09-09T01:33:29;100655.13;;;13.00;100.00
59789;BME280;47353;51.614;5.530;2022-09-09T01:35:56;100649.25;;;13.02;100.00
59789;BME280;47353;51.614;5.530;2022-09-09T01:38:23;100648.16;;;13.03;100.00
59789;BME280;47353;51.614;5.530;2022-09-09T01:40:50;100643.22;;;12.95;100.00
59789;BME280;47353;51.614;5.530;2022-09-09T01:43:19;100636.13;;;13.07;100.00
59789;BME280;47353;51.614;5.530;2022-09-09T01:45:46;100641.16;;;13.05;100.00
59789;BME280;47353;51.614;5.530;2022-09-09T01:48:14;100642.91;;;13.01;100.00
59789;BME280;47353;51.614;5.530;2022-09-09T01:50:40;100628.78;;;12.93;100.00
59789;BME280;47353;51.614;5.530;2022-09-09T01:53:05;100637.66;;;12.95;100.00
59789;BME280;47353;51.614;5.530;2022-09-09T01:55:42;100633.81;;;12.91;100.00
59789;BME280;47353;51.614;5.530;2022-09-09T02:03:53;100634.63;;;12.91;100.00
59789;BME280;47353;51.614;5.530;2022-09-09T02:06:41;100639.66;;;12.89;100.00
59789;BME280;47353;51.614;5.530;2022-09-09T02:09:11;100628.84;;;12.88;100.00
59789;BME280;47353;51.614;5.530;2022-09-09T02:11:37;100626.91;;;12.88;100.00
59789;BME280;47353;51.614;5.530;2022-09-09T02:14:12;100625.25;;;12.87;100.00
59789;BME280;47353;51.614;5.530;2022-09-09T02:16:42;100621.94;;;12.85;100.00
59789;BME280;47353;51.614;5.530;2022-09-09T02:19:11;100620.91;;;12.81;100.00
59789;BME280;47353;51.614;5.530;2022-09-09T02:21:39;100616.44;;;12.80;100.00
59789;BME280;47353;51.614;5.530;2022-09-09T02:24:07;100616.44;;;12.80;100.00
59789;BME280;47353;51.614;5.530;2022-09-09T02:26:39;100611.19;;;12.79;100.00
59789;BME280;47353;51.614;5.530;2022-09-09T02:29:09;100611.44;;;12.82;100.00
59789;BME280;47353;51.614;5.530;2022-09-09T02:31:38;100611.44;;;12.82;100.00
59789;BME280;47353;51.614;5.530;2022-09-09T02:34:05;100603.16;;;12.77;100.00
59789;BME280;47353;51.614;5.530;2022-09-09T02:36:34;100617.28;;;12.81;100.00
59789;BME280;47353;51.614;5.530;2022-09-09T02:39:02;100609.50;;;12.83;100.00
59789;BME280;47353;51.614;5.530;2022-09-09T02:41:34;100619.22;;;12.80;100.00
59789;BME280;47353;51.614;5.530;2022-09-09T02:44:00;100615.63;;;12.80;100.00
59789;BME280;47353;51.614;5.530;2022-09-09T02:49:10;100617.00;;;12.82;100.00
59789;BME280;47353;51.614;5.530;2022-09-09T02:51:47;100622.38;;;12.74;100.00
59789;BME280;47353;51.614;5.530;2022-09-09T02:54:19;100615.44;;;12.71;100.00
59789;BME280;47353;51.614;5.530;2022-09-09T02:56:54;100619.38;;;12.70;100.00
59789;BME280;47353;51.614;5.530;2022-09-09T02:59:20;100620.16;;;12.71;100.00
59789;BME280;47353;51.614;5.530;2022-09-09T03:01:46;100616.03;;;12.68;100.00
59789;BME280;47353;51.614;5.530;2022-09-09T03:04:12;100621.31;;;12.70;100.00
59789;BME280;47353;51.614;5.530;2022-09-09T03:06:38;100627.44;;;12.67;100.00
59789;BME280;47353;51.614;5.530;2022-09-09T03:09:03;100624.69;;;12.67;100.00
59789;BME280;47353;51.614;5.530;2022-09-09T03:11:29;100629.34;;;12.71;100.00
59789;BME280;47353;51.614;5.530;2022-09-09T03:13:54;100625.16;;;12.74;100.00
59789;BME280;47353;51.614;5.530;2022-09-09T03:16:22;100619.59;;;12.74;100.00
59789;BME280;47353;51.614;5.530;2022-09-09T03:18:47;100620.66;;;12.78;100.00
59789;BME280;47353;51.614;5.530;2022-09-09T03:21:13;100627.94;;;12.74;100.00
59789;BME280;47353;51.614;5.530;2022-09-09T03:23:38;100623.19;;;12.74;100.00
59789;BME280;47353;51.614;5.530;2022-09-09T03:26:04;100619.00;;;12.77;100.00
59789;BME280;47353;51.614;5.530;2022-09-09T03:28:29;100624.88;;;12.75;100.00
59789;BME280;47353;51.614;5.530;2022-09-09T03:30:59;100627.94;;;12.74;100.00
59789;BME280;47353;51.614;5.530;2022-09-09T03:33:25;100628.38;;;12.81;100.00
59789;BME280;47353;51.614;5.530;2022-09-09T03:35:50;100626.16;;;12.83;100.00
59789;BME280;47353;51.614;5.530;2022-09-09T03:38:15;100634.50;;;12.83;100.00
59789;BME280;47353;51.614;5.530;2022-09-09T03:40:49;100633.00;;;12.90;100.00
59789;BME280;47353;51.614;5.530;2022-09-09T03:43:14;100630.97;;;12.96;100.00
59789;BME280;47353;51.614;5.530;2022-09-09T03:45:45;100620.97;;;13.00;100.00
59789;BME280;47353;51.614;5.530;2022-09-09T03:48:13;100625.94;;;12.98;100.00
59789;BME280;47353;51.614;5.530;2022-09-09T03:50:38;100633.38;;;13.07;100.00
59789;BME280;47353;51.614;5.530;2022-09-09T03:53:03;100623.94;;;13.03;100.00
59789;BME280;47353;51.614;5.530;2022-09-09T03:55:31;100616.16;;;13.05;100.00
59789;BME280;47353;51.614;5.530;2022-09-09T03:57:57;100626.44;;;13.05;100.00
59789;BME280;47353;51.614;5.530;2022-09-09T04:00:23;100626.38;;;13.10;100.00
59789;BME280;47353;51.614;5.530;2022-09-09T04:02:48;100626.66;;;13.08;100.00
59789;BME280;47353;51.614;5.530;2022-09-09T04:05:15;100620.22;;;13.13;100.00
59789;BME280;47353;51.614;5.530;2022-09-09T04:07:40;100621.06;;;13.13;100.00
59789;BME280;47353;51.614;5.530;2022-09-09T04:10:06;100616.28;;;13.14;100.00
59789;BME280;47353;51.614;5.530;2022-09-09T04:12:33;100614.13;;;13.11;100.00
59789;BME280;47353;51.614;5.530;2022-09-09T04:14:59;100616.09;;;13.10;100.00
59789;BME280;47353;51.614;5.530;2022-09-09T04:17:25;100607.50;;;13.07;100.00
59789;BME280;47353;51.614;5.530;2022-09-09T04:19:50;100614.41;;;13.09;100.00
59789;BME280;47353;51.614;5.530;2022-09-09T04:22:16;100609.34;;;13.16;100.00
59789;BME280;47353;51.614;5.530;2022-09-09T04:24:41;100611.56;;;13.14;100.00
59789;BME280;47353;51.614;5.530;2022-09-09T04:27:06;100607.38;;;13.17;100.00
59789;BME280;47353;51.614;5.530;2022-09-09T04:29:32;100606.50;;;13.21;100.00
59789;BME280;47353;51.614;5.530;2022-09-09T04:31:58;100609.16;;;13.26;100.00
59789;BME280;47353;51.614;5.530;2022-09-09T04:34:23;100607.59;;;13.20;100.00
59789;BME280;47353;51.614;5.530;2022-09-09T04:36:49;100605.88;;;13.24;100.00
59789;BME280;47353;51.614;5.530;2022-09-09T04:39:17;100606.38;;;13.26;100.00
59789;BME280;47353;51.614;5.530;2022-09-09T04:41:42;100601.38;;;13.28;100.00
59789;BME280;47353;51.614;5.530;2022-09-09T04:44:07;100602.81;;;13.26;100.00
59789;BME280;47353;51.614;5.530;2022-09-09T04:46:33;100603.25;;;13.33;100.00
59789;BME280;47353;51.614;5.530;2022-09-09T04:48:59;100588.50;;;13.32;100.00
59789;BME280;47353;51.614;5.530;2022-09-09T04:51:25;100590.72;;;13.35;100.00
59789;BME280;47353;51.614;5.530;2022-09-09T04:53:50;100596.34;;;13.30;100.00
59789;BME280;47353;51.614;5.530;2022-09-09T04:56:17;100593.56;;;13.30;100.00
59789;BME280;47353;51.614;5.530;2022-09-09T04:58:43;100601.38;;;13.28;100.00
59789;BME280;47353;51.614;5.530;2022-09-09T05:01:14;100598.06;;;13.26;100.00
59789;BME280;47353;51.614;5.530;2022-09-09T05:03:40;100598.59;;;13.28;100.00
59789;BME280;47353;51.614;5.530;2022-09-09T05:06:10;100591.38;;;13.27;100.00
59789;BME280;47353;51.614;5.530;2022-09-09T05:08:37;100593.25;;;13.32;100.00
59789;BME280;47353;51.614;5.530;2022-09-09T05:11:04;100600.69;;;13.36;100.00
59789;BME280;47353;51.614;5.530;2022-09-09T05:13:29;100588.22;;;13.34;100.00
59789;BME280;47353;51.614;5.530;2022-09-09T05:15:57;100584.56;;;13.38;100.00
59789;BME280;47353;51.614;5.530;2022-09-09T05:18:23;100593.75;;;13.53;100.00
59789;BME280;47353;51.614;5.530;2022-09-09T05:20:49;100595.19;;;13.50;100.00
59789;BME280;47353;51.614;5.530;2022-09-09T05:23:16;100596.34;;;13.49;100.00
59789;BME280;47353;51.614;5.530;2022-09-09T05:25:42;100595.28;;;13.45;100.00
59789;BME280;47353;51.614;5.530;2022-09-09T05:28:07;100597.25;;;13.45;100.00
59789;BME280;47353;51.614;5.530;2022-09-09T05:30:33;100583.66;;;13.43;100.00
59789;BME280;47353;51.614;5.530;2022-09-09T05:32:59;100584.00;;;13.36;100.00
59789;BME280;47353;51.614;5.530;2022-09-09T05:35:24;100590.63;;;13.40;100.00
59789;BME280;47353;51.614;5.530;2022-09-09T05:37:50;100584.75;;;13.42;100.00
59789;BME280;47353;51.614;5.530;2022-09-09T05:40:15;100580.56;;;13.45;100.00
59789;BME280;47353;51.614;5.530;2022-09-09T05:42:41;100587.53;;;13.42;100.00
59789;BME280;47353;51.614;5.530;2022-09-09T05:45:08;100584.25;;;13.40;100.00
59789;BME280;47353;51.614;5.530;2022-09-09T05:47:35;100590.47;;;13.51;100.00
59789;BME280;47353;51.614;5.530;2022-09-09T05:50:01;100586.94;;;13.45;100.00
59789;BME280;47353;51.614;5.530;2022-09-09T05:52:26;100598.28;;;13.49;100.00
59789;BME280;47353;51.614;5.530;2022-09-09T05:54:52;100601.28;;;13.52;100.00
59789;BME280;47353;51.614;5.530;2022-09-09T05:57:19;100597.59;;;13.57;100.00
59789;BME280;47353;51.614;5.530;2022-09-09T05:59:45;100598.13;;;13.59;100.00
59789;BME280;47353;51.614;5.530;2022-09-09T06:02:10;100598.47;;;13.71;100.00
59789;BME280;47353;51.614;5.530;2022-09-09T06:04:37;100605.00;;;13.80;100.00
59789;BME280;47353;51.614;5.530;2022-09-09T06:07:04;100603.38;;;13.79;100.00
59789;BME280;47353;51.614;5.530;2022-09-09T06:09:30;100607.25;;;13.78;100.00
59789;BME280;47353;51.614;5.530;2022-09-09T06:11:56;100612.44;;;13.84;100.00
59789;BME280;47353;51.614;5.530;2022-09-09T06:14:23;100613.69;;;13.92;100.00
59789;BME280;47353;51.614;5.530;2022-09-09T06:16:50;100615.03;;;13.94;100.00
59789;BME280;47353;51.614;5.530;2022-09-09T06:19:16;100614.03;;;14.04;100.00
59789;BME280;47353;51.614;5.530;2022-09-09T06:21:41;100606.63;;;14.13;100.00
59789;BME280;47353;51.614;5.530;2022-09-09T06:24:07;100605.63;;;14.22;100.00
59789;BME280;47353;51.614;5.530;2022-09-09T06:26:38;100599.31;;;14.49;100.00
59789;BME280;47353;51.614;5.530;2022-09-09T06:29:05;100603.00;;;14.71;100.00
59789;BME280;47353;51.614;5.530;2022-09-09T06:31:33;100608.28;;;14.86;100.00
59789;BME280;47353;51.614;5.530;2022-09-09T06:33:59;100601.44;;;15.06;100.00
59789;BME280;47353;51.614;5.530;2022-09-09T06:36:30;100600.78;;;15.23;100.00
59789;BME280;47353;51.614;5.530;2022-09-09T06:38:56;100615.13;;;15.30;99.98
59789;BME280;47353;51.614;5.530;2022-09-09T06:41:23;100606.63;;;15.35;99.50
59789;BME280;47353;51.614;5.530;2022-09-09T06:43:49;100608.38;;;15.44;99.41
59789;BME280;47353;51.614;5.530;2022-09-09T06:46:32;100600.66;;;15.41;99.71
59789;BME280;47353;51.614;5.530;2022-09-09T06:48:58;100604.75;;;15.57;97.46
59789;BME280;47353;51.614;5.530;2022-09-09T06:51:33;100598.38;;;15.43;97.99
59789;BME280;47353;51.614;5.530;2022-09-09T06:54:00;100605.28;;;15.46;98.44
59789;BME280;47353;51.614;5.530;2022-09-09T06:56:34;100590.06;;;15.52;97.67
59789;BME280;47353;51.614;5.530;2022-09-09T06:59:02;100596.69;;;15.56;95.90
59789;BME280;47353;51.614;5.530;2022-09-09T07:01:30;100597.50;;;15.56;95.76
59789;BME280;47353;51.614;5.530;2022-09-09T07:03:57;100598.97;;;15.54;95.49
59789;BME280;47353;51.614;5.530;2022-09-09T07:06:29;100598.31;;;15.57;96.39
59789;BME280;47353;51.614;5.530;2022-09-09T07:09:03;100588.16;;;15.61;94.17
59789;BME280;47353;51.614;5.530;2022-09-09T07:11:32;100598.28;;;15.70;92.92
59789;BME280;47353;51.614;5.530;2022-09-09T07:13:58;100602.84;;;15.88;91.75
59789;BME280;47353;51.614;5.530;2022-09-09T07:16:25;100600.31;;;16.00;92.11
59789;BME280;47353;51.614;5.530;2022-09-09T07:18:53;100602.44;;;16.25;92.50
59789;BME280;47353;51.614;5.530;2022-09-09T07:21:20;100600.63;;;16.51;89.82
59789;BME280;47353;51.614;5.530;2022-09-09T07:23:46;100597.50;;;16.53;87.83
59789;BME280;47353;51.614;5.530;2022-09-09T07:26:14;100594.22;;;16.59;87.09
59789;BME280;47353;51.614;5.530;2022-09-09T07:28:41;100596.09;;;16.81;86.09
59789;BME280;47353;51.614;5.530;2022-09-09T07:31:08;100597.78;;;16.82;85.46
59789;BME280;47353;51.614;5.530;2022-09-09T07:33:39;100589.38;;;16.82;84.49
59789;BME280;47353;51.614;5.530;2022-09-09T07:36:17;100600.16;;;17.06;85.04
59789;BME280;47353;51.614;5.530;2022-09-09T07:38:45;100582.72;;;17.17;82.28
59789;BME280;47353;51.614;5.530;2022-09-09T07:41:16;100598.00;;;17.20;81.62
59789;BME280;47353;51.614;5.530;2022-09-09T07:43:45;100601.31;;;17.22;80.93
59789;BME280;47353;51.614;5.530;2022-09-09T07:46:12;100597.06;;;17.41;83.15
59789;BME280;47353;51.614;5.530;2022-09-09T07:48:39;100605.94;;;17.26;81.91
59789;BME280;47353;51.614;5.530;2022-09-09T07:51:11;100604.44;;;17.20;80.57
59789;BME280;47353;51.614;5.530;2022-09-09T07:53:38;100611.28;;;16.97;82.11
59789;BME280;47353;51.614;5.530;2022-09-09T07:56:10;100599.47;;;16.92;81.16
59789;BME280;47353;51.614;5.530;2022-09-09T07:58:36;100604.25;;;17.08;81.82
59789;BME280;47353;51.614;5.530;2022-09-09T08:01:07;100613.16;;;17.10;81.74
59789;BME280;47353;51.614;5.530;2022-09-09T08:03:33;100592.94;;;17.13;79.95
59789;BME280;47353;51.614;5.530;2022-09-09T08:06:04;100612.97;;;17.07;81.18
59789;BME280;47353;51.614;5.530;2022-09-09T08:08:30;100605.75;;;17.14;80.79
59789;BME280;47353;51.614;5.530;2022-09-09T08:11:05;100614.16;;;17.31;79.24
59789;BME280;47353;51.614;5.530;2022-09-09T08:13:33;100604.44;;;17.20;78.97
59789;BME280;47353;51.614;5.530;2022-09-09T08:16:19;100608.88;;;17.13;79.89
59789;BME280;47353;51.614;5.530;2022-09-09T08:18:49;100614.94;;;17.06;79.18
59789;BME280;47353;51.614;5.530;2022-09-09T08:21:18;100618.75;;;17.19;80.79
59789;BME280;47353;51.614;5.530;2022-09-09T08:23:45;100627.97;;;17.19;79.50
59789;BME280;47353;51.614;5.530;2022-09-09T08:28:36;100623.69;;;17.13;80.25
59789;BME280;47353;51.614;5.530;2022-09-09T08:31:11;100619.72;;;17.14;79.92
59789;BME280;47353;51.614;5.530;2022-09-09T08:33:37;100620.91;;;17.13;79.91
59789;BME280;47353;51.614;5.530;2022-09-09T08:36:04;100620.25;;;17.16;79.62
59789;BME280;47353;51.614;5.530;2022-09-09T08:38:30;100633.06;;;17.17;78.96
59789;BME280;47353;51.614;5.530;2022-09-09T08:41:03;100626.66;;;17.25;79.42
59789;BME280;47353;51.614;5.530;2022-09-09T08:43:31;100625.19;;;17.28;79.54
59789;BME280;47353;51.614;5.530;2022-09-09T08:46:09;100633.91;;;17.26;79.26
59789;BME280;47353;51.614;5.530;2022-09-09T08:48:51;100633.09;;;17.26;80.30
59789;BME280;47353;51.614;5.530;2022-09-09T08:51:25;100637.53;;;17.27;77.41
59789;BME280;47353;51.614;5.530;2022-09-09T08:53:52;100638.84;;;17.29;78.27
59789;BME280;47353;51.614;5.530;2022-09-09T08:56:23;100630.59;;;17.24;78.18
59789;BME280;47353;51.614;5.530;2022-09-09T08:58:51;100636.03;;;17.21;78.53
59789;BME280;47353;51.614;5.530;2022-09-09T09:06:49;100644.41;;;17.12;79.27
59789;BME280;47353;51.614;5.530;2022-09-09T09:11:58;100649.00;;;17.08;78.08
59789;BME280;47353;51.614;5.530;2022-09-09T09:14:29;100645.69;;;16.98;78.56
59789;BME280;47353;51.614;5.530;2022-09-09T09:17:04;100653.25;;;16.97;78.72
59789;BME280;47353;51.614;5.530;2022-09-09T09:19:33;100642.25;;;17.01;79.48
59789;BME280;47353;51.614;5.530;2022-09-09T09:30:21;100648.69;;;17.18;79.28
59789;BME280;47353;51.614;5.530;2022-09-09T09:35:36;100644.81;;;17.45;78.23
59789;BME280;47353;51.614;5.530;2022-09-09T09:38:21;100642.88;;;17.45;77.95
59789;BME280;47353;51.614;5.530;2022-09-09T09:40:58;100650.59;;;17.48;77.17
59789;BME280;47353;51.614;5.530;2022-09-09T09:43:27;100652.09;;;17.54;76.71
59789;BME280;47353;51.614;5.530;2022-09-09T09:45:53;100648.31;;;17.50;76.62
59789;BME280;47353;51.614;5.530;2022-09-09T09:48:20;100651.88;;;17.42;76.79
59789;BME280;47353;51.614;5.530;2022-09-09T09:50:57;100644.81;;;17.45;78.43
59789;BME280;47353;51.614;5.530;2022-09-09T09:53:31;100654.06;;;17.54;77.63
59789;BME280;47353;51.614;5.530;2022-09-09T09:56:02;100650.59;;;17.74;77.72
59789;BME280;47353;51.614;5.530;2022-09-09T10:01:27;100642.72;;;17.76;76.87
59789;BME280;47353;51.614;5.530;2022-09-09T10:04:02;100642.41;;;17.69;78.00
59789;BME280;47353;51.614;5.530;2022-09-09T10:06:31;100643.88;;;17.58;78.23
59789;BME280;47353;51.614;5.530;2022-09-09T10:08:58;100637.44;;;17.49;77.72
59789;BME280;47353;51.614;5.530;2022-09-09T10:22:44;100655.91;;;17.02;81.29
59789;BME280;47353;51.614;5.530;2022-09-09T10:36:18;100659.44;;;17.42;84.00
59789;BME280;47353;51.614;5.530;2022-09-09T10:39:34;100651.59;;;17.44;83.21
59789;BME280;47353;51.614;5.530;2022-09-09T10:42:03;100654.88;;;17.54;82.55
59789;BME280;47353;51.614;5.530;2022-09-09T10:44:55;100656.66;;;17.33;82.31
59789;BME280;47353;51.614;5.530;2022-09-09T10:47:36;100666.28;;;17.10;83.36
59789;BME280;47353;51.614;5.530;2022-09-09T10:50:46;100662.28;;;17.03;84.48
59789;BME280;47353;51.614;5.530;2022-09-09T10:56:12;100663.78;;;17.00;86.56
59789;BME280;47353;51.614;5.530;2022-09-09T10:58:44;100660.00;;;17.05;84.86
59789;BME280;47353;51.614;5.530;2022-09-09T11:01:17;100659.81;;;16.93;86.47
59789;BME280;47353;51.614;5.530;2022-09-09T11:03:47;100660.97;;;17.00;86.59
59789;BME280;47353;51.614;5.530;2022-09-09T11:06:19;100652.81;;;17.21;86.14
59789;BME280;47353;51.614;5.530;2022-09-09T11:08:45;100656.97;;;17.40;85.56
59789;BME280;47353;51.614;5.530;2022-09-09T11:11:19;100658.16;;;17.48;83.71
59789;BME280;47353;51.614;5.530;2022-09-09T11:14:15;100652.09;;;17.54;83.94
59789;BME280;47353;51.614;5.530;2022-09-09T11:16:58;100654.72;;;17.51;82.80
59789;BME280;47353;51.614;5.530;2022-09-09T11:19:38;100647.94;;;17.35;84.05
59789;BME280;47353;51.614;5.530;2022-09-09T11:22:31;100651.16;;;17.20;84.48
59789;BME280;47353;51.614;5.530;2022-09-09T11:25:13;100652.97;;;17.07;85.95
59789;BME280;47353;51.614;5.530;2022-09-09T11:41:33;100647.81;;;17.91;83.69
59789;BME280;47353;51.614;5.530;2022-09-09T11:43:59;100647.31;;;17.80;83.16
59789;BME280;47353;51.614;5.530;2022-09-09T11:46:34;100650.78;;;17.86;82.92
59789;BME280;47353;51.614;5.530;2022-09-09T11:49:04;100661.97;;;17.77;81.09
59789;BME280;47353;51.614;5.530;2022-09-09T11:51:31;100652.44;;;17.70;82.18
59789;BME280;47353;51.614;5.530;2022-09-09T11:54:30;100657.34;;;17.64;82.92
59789;BME280;47353;51.614;5.530;2022-09-09T11:56:56;100648.13;;;17.55;82.00
59789;BME280;47353;51.614;5.530;2022-09-09T11:59:29;100659.31;;;17.47;82.48
59789;BME280;47353;51.614;5.530;2022-09-09T12:02:13;100656.84;;;17.45;83.86
59789;BME280;47353;51.614;5.530;2022-09-09T12:04:47;100648.63;;;17.49;82.78
59789;BME280;47353;51.614;5.530;2022-09-09T12:07:52;100651.25;;;17.54;82.25
59789;BME280;47353;51.614;5.530;2022-09-09T12:12:46;100653.56;;;17.86;81.51
59789;BME280;47353;51.614;5.530;2022-09-09T12:17:48;100649.94;;;18.19;80.71
59789;BME280;47353;51.614;5.530;2022-09-09T12:20:20;100645.31;;;18.41;79.52
59789;BME280;47353;51.614;5.530;2022-09-09T12:25:57;100642.25;;;19.38;76.30
59789;BME280;47353;51.614;5.530;2022-09-09T12:28:47;100647.13;;;20.44;72.06
59789;BME280;47353;51.614;5.530;2022-09-09T12:31:55;100641.38;;;20.85;71.04
59789;BME280;47353;51.614;5.530;2022-09-09T12:34:34;100641.59;;;20.35;71.47
59789;BME280;47353;51.614;5.530;2022-09-09T12:37:13;100637.28;;;19.84;71.93
59789;BME280;47353;51.614;5.530;2022-09-09T12:40:26;100638.22;;;19.68;73.73
59789;BME280;47353;51.614;5.530;2022-09-09T12:42:44;100634.19;;;19.77;71.57
59789;BME280;47353;51.614;5.530;2022-09-09T12:45:38;100640.22;;;19.67;72.73
59789;BME280;47353;51.614;5.530;2022-09-09T12:48:08;100637.97;;;19.81;71.64
59789;BME280;47353;51.614;5.530;2022-09-09T12:50:42;100642.94;;;19.76;70.78
59789;BME280;47353;51.614;5.530;2022-09-09T12:53:33;100631.03;;;19.38;71.85
59789;BME280;47353;51.614;5.530;2022-09-09T12:58:31;100636.38;;;18.85;73.74
59789;BME280;47353;51.614;5.530;2022-09-09T13:01:00;100627.53;;;18.74;73.92
59789;BME280;47353;51.614;5.530;2022-09-09T13:03:30;100627.97;;;18.39;75.81
59789;BME280;47353;51.614;5.530;2022-09-09T13:06:12;100635.59;;;18.12;77.65
59789;BME280;47353;51.614;5.530;2022-09-09T13:08:39;100633.66;;;17.70;81.83
59789;BME280;47353;51.614;5.530;2022-09-09T13:11:13;100639.31;;;17.23;84.65
59789;BME280;47353;51.614;5.530;2022-09-09T13:13:43;100638.97;;;17.07;86.37
59789;BME280;47353;51.614;5.530;2022-09-09T13:16:26;100630.16;;;16.75;88.97
59789;BME280;47353;51.614;5.530;2022-09-09T13:18:57;100635.88;;;16.78;91.03
59789;BME280;47353;51.614;5.530;2022-09-09T13:21:50;100638.47;;;17.14;88.86
59789;BME280;47353;51.614;5.530;2022-09-09T13:24:31;100635.63;;;17.78;87.85
59789;BME280;47353;51.614;5.530;2022-09-09T13:29:22;100620.97;;;19.37;80.49
59789;BME280;47353;51.614;5.530;2022-09-09T13:31:48;100617.88;;;19.71;76.14
59789;BME280;47353;51.614;5.530;2022-09-09T13:34:30;100608.66;;;20.92;76.10
59789;BME280;47353;51.614;5.530;2022-09-09T13:37:02;100611.94;;;22.96;66.44
59789;BME280;47353;51.614;5.530;2022-09-09T13:39:33;100616.47;;;24.42;62.05
59789;BME280;47353;51.614;5.530;2022-09-09T13:42:00;100615.63;;;25.84;57.26
59789;BME280;47353;51.614;5.530;2022-09-09T13:44:35;100618.00;;;26.42;54.14
59789;BME280;47353;51.614;5.530;2022-09-09T13:47:06;100615.41;;;25.41;54.26
59789;BME280;47353;51.614;5.530;2022-09-09T13:49:32;100615.00;;;24.71;55.52
59789;BME280;47353;51.614;5.530;2022-09-09T13:52:16;100613.94;;;24.37;58.14
59789;BME280;47353;51.614;5.530;2022-09-09T13:54:47;100607.25;;;23.35;59.38
59789;BME280;47353;51.614;5.530;2022-09-09T13:57:19;100612.19;;;22.60;63.77
59789;BME280;47353;51.614;5.530;2022-09-09T13:59:45;100616.25;;;21.92;64.11
59789;BME280;47353;51.614;5.530;2022-09-09T14:02:11;100613.97;;;21.70;65.26
59789;BME280;47353;51.614;5.530;2022-09-09T14:04:37;100607.97;;;21.19;66.30
59789;BME280;47353;51.614;5.530;2022-09-09T14:07:03;100608.88;;;20.75;67.08
59789;BME280;47353;51.614;5.530;2022-09-09T14:09:28;100599.94;;;20.49;67.85
59789;BME280;47353;51.614;5.530;2022-09-09T14:11:54;100601.31;;;20.11;68.73
59789;BME280;47353;51.614;5.530;2022-09-09T14:14:22;100599.22;;;20.08;70.03
59789;BME280;47353;51.614;5.530;2022-09-09T14:16:48;100592.72;;;21.20;68.33
59789;BME280;47353;51.614;5.530;2022-09-09T14:19:13;100594.34;;;21.73;65.90
59789;BME280;47353;51.614;5.530;2022-09-09T14:21:39;100592.50;;;21.65;65.48
59789;BME280;47353;51.614;5.530;2022-09-09T14:24:04;100600.47;;;21.23;66.30
59789;BME280;47353;51.614;5.530;2022-09-09T14:26:31;100599.66;;;21.11;66.60
59789;BME280;47353;51.614;5.530;2022-09-09T14:28:56;100600.59;;;21.67;66.09
59789;BME280;47353;51.614;5.530;2022-09-09T14:31:22;100596.66;;;21.95;62.22
59789;BME280;47353;51.614;5.530;2022-09-09T14:33:48;100599.09;;;21.57;63.26
59789;BME280;47353;51.614;5.530;2022-09-09T14:36:13;100598.91;;;20.90;65.94
59789;BME280;47353;51.614;5.530;2022-09-09T14:38:40;100588.59;;;20.82;67.61
59789;BME280;47353;51.614;5.530;2022-09-09T14:41:07;100600.09;;;20.77;66.03
59789;BME280;47353;51.614;5.530;2022-09-09T14:43:34;100591.75;;;20.68;66.60
59789;BME280;47353;51.614;5.530;2022-09-09T14:46:10;100602.75;;;20.61;66.77
59789;BME280;47353;51.614;5.530;2022-09-09T14:48:35;100598.25;;;20.36;67.84
59789;BME280;47353;51.614;5.530;2022-09-09T14:51:06;100596.13;;;20.21;67.53
59789;BME280;47353;51.614;5.530;2022-09-09T14:53:32;100592.84;;;19.99;69.10